Time;durP1;ratioP1;P1;durP2;ratioP2;P2;SDS_P1;SDS_P2;PMS_P1;PMS_P2;Temp;Humidity;BMP_temperature;BMP_pressure;BME280_temperature;BME280_humidity;BME280_pressure;Samples;Min_cycle;Max_cycle;Signal;HPM_P1;HPM_P2
2021/03/02 00:00:26;;;;;;;27.95;14.30;;;4.00;99.90;;;;;;5014178;28;20378;-74
2021/03/02 00:02:52;;;;;;;28.33;15.40;;;4.00;99.90;;;;;;5014100;28;20413;-74
2021/03/02 00:05:17;;;;;;;28.15;15.35;;;3.90;99.90;;;;;;5014194;28;20026;-74
2021/03/02 00:07:43;;;;;;;32.92;16.98;;;3.80;99.90;;;;;;5014084;28;20030;-74
2021/03/02 00:10:11;;;;;;;27.67;16.33;;;3.80;99.90;;;;;;5014028;28;20025;-74
2021/03/02 00:12:39;;;;;;;31.20;15.75;;;3.70;99.90;;;;;;5013963;28;20089;-74
2021/03/02 00:15:07;;;;;;;30.00;15.20;;;3.60;99.90;;;;;;5014070;28;20029;-74
2021/03/02 00:17:45;;;;;;;28.80;14.57;;;3.60;99.90;;;;;;5013418;28;20029;-75
2021/03/02 00:20:22;;;;;;;23.33;12.35;;;3.60;99.90;;;;;;5013685;28;20018;-74
2021/03/02 00:22:57;;;;;;;27.52;13.35;;;3.60;99.90;;;;;;5013753;28;20037;-74
2021/03/02 00:25:27;;;;;;;21.70;11.93;;;3.60;99.90;;;;;;5013759;28;20037;-74
2021/03/02 00:27:54;;;;;;;26.27;12.52;;;3.50;99.90;;;;;;5012551;28;20033;-74
2021/03/02 00:30:20;;;;;;;26.02;12.15;;;3.50;99.90;;;;;;5013740;28;20498;-74
2021/03/02 00:32:47;;;;;;;22.77;12.15;;;3.40;99.90;;;;;;5013643;28;20474;-74
2021/03/02 00:35:13;;;;;;;21.92;12.38;;;3.40;99.90;;;;;;5013695;28;20021;-74
2021/03/02 00:37:39;;;;;;;26.23;12.85;;;3.30;99.90;;;;;;5013570;28;20025;-74
2021/03/02 00:40:05;;;;;;;25.55;14.00;;;3.30;99.90;;;;;;5013596;28;20022;-74
2021/03/02 00:42:31;;;;;;;26.10;12.35;;;3.20;99.90;;;;;;5013509;28;20125;-74
2021/03/02 00:44:56;;;;;;;21.25;10.70;;;3.20;99.90;;;;;;5013581;28;20091;-74
2021/03/02 00:47:22;;;;;;;23.70;12.93;;;3.10;99.90;;;;;;5013713;28;20022;-74
2021/03/02 00:49:49;;;;;;;23.85;12.27;;;3.00;99.90;;;;;;5013489;28;20032;-74
2021/03/02 00:52:16;;;;;;;26.50;11.93;;;3.00;99.90;;;;;;5013287;28;20550;-74
2021/03/02 00:54:42;;;;;;;24.73;11.52;;;2.90;99.90;;;;;;5013412;28;20022;-74
2021/03/02 00:57:07;;;;;;;23.88;11.10;;;2.90;99.90;;;;;;5013296;28;20017;-75
2021/03/02 00:59:33;;;;;;;20.90;11.40;;;2.90;99.90;;;;;;5013376;28;20505;-74
2021/03/02 01:01:58;;;;;;;23.05;12.10;;;2.80;99.90;;;;;;5030973;28;20028;-74
2021/03/02 01:04:24;;;;;;;22.30;11.48;;;2.80;99.90;;;;;;5013287;28;20021;-74
2021/03/02 01:06:50;;;;;;;23.05;11.43;;;2.70;99.90;;;;;;5013129;28;20140;-74
2021/03/02 01:09:15;;;;;;;21.65;11.25;;;2.70;99.90;;;;;;5013158;28;20021;-74
2021/03/02 01:11:41;;;;;;;24.63;11.88;;;2.70;99.90;;;;;;5013086;28;20030;-75
2021/03/02 01:14:07;;;;;;;23.55;12.65;;;2.60;99.90;;;;;;5013125;28;20487;-74
2021/03/02 01:16:33;;;;;;;24.73;12.10;;;2.60;99.90;;;;;;5030506;28;20030;-74
2021/03/02 01:18:58;;;;;;;24.35;11.65;;;2.50;99.90;;;;;;5012997;28;20479;-74
2021/03/02 01:21:24;;;;;;;25.33;12.48;;;2.60;99.90;;;;;;5012893;28;20121;-74
2021/03/02 01:23:49;;;;;;;26.63;12.68;;;2.60;99.90;;;;;;5012918;28;20078;-74
2021/03/02 01:26:15;;;;;;;27.67;13.70;;;2.70;99.90;;;;;;5012934;28;20032;-75
2021/03/02 01:28:41;;;;;;;26.70;13.73;;;2.70;99.90;;;;;;5013009;28;20055;-74
2021/03/02 01:31:06;;;;;;;25.02;13.10;;;2.70;99.90;;;;;;5012849;28;20033;-74
2021/03/02 01:33:32;;;;;;;25.02;12.60;;;2.70;99.90;;;;;;5012624;28;20069;-74
2021/03/02 01:35:57;;;;;;;26.17;14.50;;;2.60;99.90;;;;;;5012598;28;20025;-74
2021/03/02 01:38:23;;;;;;;23.05;12.23;;;2.50;99.90;;;;;;5012107;28;20026;-74
2021/03/02 01:40:49;;;;;;;24.95;13.00;;;2.50;99.90;;;;;;5012696;28;20055;-74
2021/03/02 01:43:15;;;;;;;24.65;13.27;;;2.50;99.90;;;;;;5012749;28;20054;-74
2021/03/02 01:45:40;;;;;;;29.20;14.13;;;2.40;99.90;;;;;;5012698;28;20390;-75
2021/03/02 01:48:07;;;;;;;25.58;13.45;;;2.30;99.90;;;;;;5012564;28;20033;-74
2021/03/02 01:50:33;;;;;;;27.13;14.15;;;2.30;99.90;;;;;;5012542;28;20053;-74
2021/03/02 01:52:59;;;;;;;27.80;14.18;;;2.30;99.90;;;;;;5012507;28;20474;-74
2021/03/02 01:55:24;;;;;;;25.73;13.48;;;2.20;99.90;;;;;;5012403;28;20029;-75
2021/03/02 01:57:50;;;;;;;29.25;14.48;;;2.20;99.90;;;;;;5012465;28;20108;-74
2021/03/02 02:00:22;;;;;;;26.15;13.25;;;2.20;99.90;;;;;;5012491;28;20025;-75
2021/03/02 02:02:52;;;;;;;33.58;14.57;;;2.20;99.90;;;;;;5012331;28;20034;-74
2021/03/02 02:05:20;;;;;;;30.00;14.20;;;2.30;99.90;;;;;;5012319;28;20041;-74
2021/03/02 02:07:58;;;;;;;30.58;14.85;;;2.20;99.90;;;;;;5012291;28;20026;-74
2021/03/02 02:10:32;;;;;;;26.13;13.85;;;2.20;99.90;;;;;;5012330;28;20025;-74
2021/03/02 02:13:22;;;;;;;27.73;13.30;;;2.20;99.90;;;;;;5012206;28;20026;-72
2021/03/02 02:15:50;;;;;;;33.13;14.82;;;2.20;99.90;;;;;;5012115;28;20098;-74
2021/03/02 02:18:21;;;;;;;28.35;14.68;;;2.10;99.90;;;;;;5012240;28;20023;-74
2021/03/02 02:21:06;;;;;;;27.92;14.00;;;2.20;99.90;;;;;;5029915;28;20029;-74
2021/03/02 02:23:39;;;;;;;31.02;14.55;;;2.10;99.90;;;;;;5012196;28;20037;-75
2021/03/02 02:26:31;;;;;;;31.02;15.43;;;2.00;99.90;;;;;;5012160;28;20030;-75
2021/03/02 02:29:00;;;;;;;26.58;13.52;;;1.90;99.90;;;;;;5012202;28;20062;-74
2021/03/02 02:31:27;;;;;;;29.17;15.18;;;1.80;99.90;;;;;;5012307;28;20450;-74
2021/03/02 02:33:54;;;;;;;34.80;15.88;;;1.70;99.90;;;;;;5011944;28;20032;-74
2021/03/02 02:36:21;;;;;;;29.45;14.63;;;1.70;99.90;;;;;;5029770;28;20553;-74
2021/03/02 02:38:52;;;;;;;28.25;13.50;;;1.60;99.90;;;;;;5029660;28;20505;-74
2021/03/02 02:41:20;;;;;;;27.08;13.98;;;1.60;99.90;;;;;;5029660;28;20052;-74
2021/03/02 02:43:47;;;;;;;25.00;13.20;;;1.50;99.90;;;;;;5029563;28;20037;-74
2021/03/02 02:46:14;;;;;;;28.98;14.10;;;1.40;99.90;;;;;;5029453;28;20053;-74
2021/03/02 02:48:39;;;;;;;33.33;15.18;;;1.30;99.90;;;;;;5029647;28;20045;-74
2021/03/02 02:51:05;;;;;;;33.33;15.40;;;1.20;99.90;;;;;;5031218;28;20482;-74
2021/03/02 02:53:31;;;;;;;30.55;14.75;;;1.20;99.90;;;;;;5032984;28;20051;-73
2021/03/02 02:56:02;;;;;;;30.60;14.98;;;1.20;99.90;;;;;;5033117;28;20033;-74
2021/03/02 02:58:37;;;;;;;33.53;16.30;;;1.10;99.90;;;;;;5015817;28;20032;-74
2021/03/02 03:01:04;;;;;;;29.52;14.93;;;1.10;99.90;;;;;;5015729;28;20021;-74
2021/03/02 03:03:32;;;;;;;31.92;15.68;;;1.10;99.90;;;;;;5033279;28;20036;-74
2021/03/02 03:06:01;;;;;;;29.05;14.90;;;1.00;99.90;;;;;;5033131;28;20103;-74
2021/03/02 03:08:31;;;;;;;34.13;16.25;;;1.00;99.90;;;;;;5033277;28;20440;-74
2021/03/02 03:10:58;;;;;;;32.83;16.65;;;0.90;99.90;;;;;;5015427;28;20406;-74
2021/03/02 03:13:26;;;;;;;33.92;16.13;;;0.90;99.90;;;;;;5033794;28;20370;-74
2021/03/02 03:15:55;;;;;;;35.45;17.17;;;0.80;99.90;;;;;;5014921;28;20026;-75
2021/03/02 03:18:25;;;;;;;32.90;15.85;;;0.90;99.90;;;;;;5014908;28;20405;-74
2021/03/02 03:20:51;;;;;;;32.92;16.27;;;0.90;99.90;;;;;;5032745;28;20021;-74
2021/03/02 03:23:18;;;;;;;38.05;16.70;;;0.80;99.90;;;;;;5014777;28;20037;-74
2021/03/02 03:25:44;;;;;;;39.33;17.08;;;0.80;99.90;;;;;;5032371;28;20105;-74
2021/03/02 03:28:13;;;;;;;37.55;17.30;;;0.70;99.90;;;;;;5032463;28;20453;-74
2021/03/02 03:30:40;;;;;;;38.97;17.08;;;0.70;99.90;;;;;;5032353;28;20045;-74
2021/03/02 03:33:08;;;;;;;33.00;16.75;;;0.70;99.90;;;;;;5032222;28;20034;-74
2021/03/02 03:35:35;;;;;;;30.35;15.88;;;0.60;99.90;;;;;;5014955;28;20087;-74
2021/03/02 03:38:00;;;;;;;34.58;16.73;;;0.60;99.90;;;;;;5032251;28;20024;-74
2021/03/02 03:40:26;;;;;;;33.15;15.23;;;0.50;99.90;;;;;;5014498;28;20434;-74
2021/03/02 03:42:52;;;;;;;37.33;16.77;;;0.50;99.90;;;;;;5014530;28;20058;-74
2021/03/02 03:45:17;;;;;;;37.55;16.70;;;0.40;99.90;;;;;;5014447;28;20068;-75
2021/03/02 03:47:44;;;;;;;43.40;17.40;;;0.40;99.90;;;;;;5014372;28;20033;-74
2021/03/02 03:50:10;;;;;;;38.38;17.88;;;0.30;99.90;;;;;;5014368;28;20052;-74
2021/03/02 03:52:40;;;;;;;38.15;18.05;;;0.30;99.90;;;;;;5032034;28;20033;-74
2021/03/02 03:55:08;;;;;;;36.08;17.90;;;0.30;99.90;;;;;;5014206;28;20509;-74
2021/03/02 03:57:34;;;;;;;36.72;17.58;;;0.20;99.90;;;;;;5014512;28;20420;-74
2021/03/02 04:00:01;;;;;;;39.42;18.58;;;0.20;99.90;;;;;;5014216;28;20108;-75
2021/03/02 04:02:29;;;;;;;37.10;17.02;;;0.10;99.90;;;;;;5013864;28;20033;-74
2021/03/02 04:04:55;;;;;;;44.20;20.52;;;0.10;99.90;;;;;;5014187;28;20070;-74
2021/03/02 04:07:21;;;;;;;37.80;18.77;;;0.10;99.90;;;;;;5014093;28;20029;-74
2021/03/02 04:09:47;;;;;;;41.83;18.45;;;0.10;99.90;;;;;;5014082;28;20035;-75
2021/03/02 04:12:13;;;;;;;43.05;20.85;;;0.10;99.90;;;;;;5014012;28;20057;-74
2021/03/02 04:14:40;;;;;;;51.83;22.35;;;0.00;99.90;;;;;;5014060;28;20045;-74
2021/03/02 04:17:10;;;;;;;51.85;21.73;;;0.10;99.90;;;;;;5076684;22;20445;-71
2021/03/02 04:19:37;;;;;;;51.08;23.17;;;0.10;99.90;;;;;;5121786;27;20021;-71
2021/03/02 04:22:03;;;;;;;46.58;22.05;;;0.10;99.90;;;;;;5122078;27;20153;-72
2021/03/02 04:24:28;;;;;;;53.65;21.85;;;0.10;99.90;;;;;;5122132;27;20073;-72
2021/03/02 04:26:55;;;;;;;47.10;22.70;;;0.10;99.90;;;;;;5121951;27;20549;-72
2021/03/02 04:29:21;;;;;;;55.75;24.95;;;0.00;99.90;;;;;;5122160;27;20100;-71
2021/03/02 04:31:46;;;;;;;50.95;21.70;;;0.10;99.90;;;;;;5122076;27;20029;-72
2021/03/02 04:34:12;;;;;;;55.85;22.60;;;0.10;99.90;;;;;;5122064;27;20032;-71
2021/03/02 04:36:38;;;;;;;54.63;22.55;;;0.20;99.90;;;;;;5121819;27;20029;-71
2021/03/02 04:39:04;;;;;;;53.17;22.73;;;0.10;99.90;;;;;;5121908;27;20029;-71
2021/03/02 04:41:30;;;;;;;55.50;24.20;;;0.10;99.90;;;;;;5122555;27;20063;-72
2021/03/02 04:43:55;;;;;;;53.95;24.17;;;0.10;99.90;;;;;;5121761;27;20025;-71
2021/03/02 04:46:21;;;;;;;54.60;24.58;;;0.20;99.90;;;;;;5121589;27;20474;-72
2021/03/02 04:48:47;;;;;;;60.60;25.67;;;0.20;99.90;;;;;;5122012;27;20033;-71
2021/03/02 04:51:13;;;;;;;62.00;26.08;;;0.10;99.90;;;;;;5122538;27;20029;-72
2021/03/02 04:53:39;;;;;;;54.67;23.33;;;0.20;99.90;;;;;;5122536;27;20025;-72
2021/03/02 04:56:05;;;;;;;56.85;24.33;;;0.20;99.90;;;;;;5121792;27;20090;-72
2021/03/02 04:58:30;;;;;;;47.75;23.33;;;0.10;99.90;;;;;;5121952;27;20022;-72
2021/03/02 05:00:56;;;;;;;50.00;23.00;;;0.10;99.90;;;;;;5121852;27;20043;-72
2021/03/02 05:03:21;;;;;;;54.08;23.95;;;0.00;99.90;;;;;;5122258;27;20087;-72
2021/03/02 05:05:47;;;;;;;57.35;24.15;;;-0.10;99.90;;;;;;5122284;27;20032;-72
2021/03/02 05:08:13;;;;;;;46.63;22.30;;;-0.10;99.90;;;;;;5122909;27;20064;-72
2021/03/02 05:10:38;;;;;;;46.85;22.58;;;-0.20;99.90;;;;;;5124875;27;20419;-72
2021/03/02 05:13:04;;;;;;;51.15;22.73;;;-0.20;99.90;;;;;;5123923;27;20029;-71
2021/03/02 05:15:29;;;;;;;45.72;21.85;;;-0.30;99.90;;;;;;5125308;27;20021;-71
2021/03/02 05:17:55;;;;;;;48.80;23.05;;;-0.30;99.90;;;;;;5124298;27;20057;-71
2021/03/02 05:20:20;;;;;;;49.88;22.38;;;-0.40;99.90;;;;;;5121560;27;20029;-71
2021/03/02 05:22:46;;;;;;;47.95;22.83;;;-0.40;99.90;;;;;;5121412;27;20047;-71
2021/03/02 05:25:12;;;;;;;46.65;21.40;;;-0.50;99.90;;;;;;5121678;27;20021;-71
2021/03/02 05:27:38;;;;;;;44.95;19.27;;;-0.50;99.90;;;;;;5121769;27;20582;-71
2021/03/02 05:30:04;;;;;;;39.05;18.60;;;-0.60;99.90;;;;;;5120160;27;20074;-71
2021/03/02 05:32:30;;;;;;;41.22;18.33;;;-0.60;99.90;;;;;;5119699;27;20025;-72
2021/03/02 05:34:55;;;;;;;36.47;17.48;;;-0.70;99.90;;;;;;5122233;27;20512;-72
2021/03/02 05:37:21;;;;;;;42.35;17.73;;;-0.70;99.90;;;;;;5053878;28;20017;-72
2021/03/02 05:39:47;;;;;;;40.40;17.70;;;-0.80;99.90;;;;;;5121836;27;20111;-71
2021/03/02 05:42:12;;;;;;;36.90;17.10;;;-0.80;99.90;;;;;;5121131;27;20120;-71
2021/03/02 05:44:38;;;;;;;40.47;18.23;;;-0.90;99.90;;;;;;5120559;27;20063;-71
2021/03/02 05:47:04;;;;;;;44.08;18.17;;;-0.90;99.90;;;;;;5121056;27;20028;-71
2021/03/02 05:49:30;;;;;;;38.25;17.85;;;-0.90;99.90;;;;;;5052212;28;20017;-71
2021/03/02 05:51:57;;;;;;;38.88;17.70;;;-0.80;99.90;;;;;;5121035;27;20042;-71
2021/03/02 05:54:23;;;;;;;40.58;18.00;;;-0.90;99.90;;;;;;5120734;27;20036;-71
2021/03/02 05:56:49;;;;;;;43.90;20.88;;;-0.80;99.90;;;;;;5052063;28;20021;-71
2021/03/02 05:59:17;;;;;;;40.72;17.85;;;-0.90;99.90;;;;;;5120913;27;20025;-72
2021/03/02 06:01:42;;;;;;;42.63;18.65;;;-0.90;99.90;;;;;;5120571;27;20065;-71
2021/03/02 06:04:15;;;;;;;41.90;18.63;;;-0.90;99.90;;;;;;5120124;28;20107;-71
2021/03/02 06:06:40;;;;;;;37.13;17.58;;;-0.90;99.90;;;;;;5119157;28;20029;-72
2021/03/02 06:09:07;;;;;;;44.38;18.23;;;-0.90;99.90;;;;;;5119178;28;20040;-72
2021/03/02 06:11:37;;;;;;;43.63;19.08;;;-0.90;99.90;;;;;;5118961;28;20032;-72
2021/03/02 06:14:22;;;;;;;43.08;19.23;;;-0.90;99.90;;;;;;5119340;28;20041;-71
2021/03/02 06:16:51;;;;;;;41.53;18.55;;;-0.80;99.90;;;;;;5119083;28;20568;-72
2021/03/02 06:19:18;;;;;;;46.20;19.55;;;-0.80;99.90;;;;;;5119064;28;20021;-71
2021/03/02 06:21:44;;;;;;;50.78;23.15;;;-0.70;99.90;;;;;;5118794;28;20021;-71
2021/03/02 06:24:10;;;;;;;50.72;23.27;;;-0.70;99.90;;;;;;5118631;28;20025;-71
2021/03/02 06:26:38;;;;;;;38.55;20.08;;;-0.60;99.90;;;;;;5122912;27;20032;-71
2021/03/02 06:29:14;;;;;;;45.28;22.67;;;-0.60;99.90;;;;;;5122948;27;20401;-71
2021/03/02 06:31:46;;;;;;;48.60;23.00;;;-0.50;99.90;;;;;;5105679;27;20077;-71
2021/03/02 06:34:17;;;;;;;47.78;22.00;;;-0.40;99.90;;;;;;5122627;27;20025;-71
2021/03/02 06:36:50;;;;;;;44.42;21.58;;;-0.40;99.90;;;;;;5122543;27;20485;-71
2021/03/02 06:39:25;;;;;;;47.90;21.30;;;-0.30;99.90;;;;;;5122607;27;20120;-70
2021/03/02 06:41:52;;;;;;;44.30;19.90;;;-0.20;99.90;;;;;;5122570;27;20078;-71
2021/03/02 06:44:18;;;;;;;39.80;19.63;;;-0.10;99.90;;;;;;5122788;27;20078;-71
2021/03/02 06:46:45;;;;;;;46.60;20.20;;;0.00;99.90;;;;;;5122217;27;20482;-71
2021/03/02 06:49:11;;;;;;;41.33;20.38;;;0.20;99.90;;;;;;5122658;27;20029;-71
2021/03/02 06:51:39;;;;;;;44.60;19.42;;;0.40;99.90;;;;;;5123125;27;20036;-71
2021/03/02 06:54:17;;;;;;;44.30;18.98;;;0.60;99.90;;;;;;5123391;27;20078;-71
2021/03/02 06:56:44;;;;;;;39.13;18.70;;;0.80;99.90;;;;;;5123666;27;20025;-72
2021/03/02 06:59:14;;;;;;;44.28;18.80;;;1.00;99.90;;;;;;5122707;27;20105;-72
2021/03/02 07:01:45;;;;;;;44.53;20.95;;;1.10;99.90;;;;;;5122284;27;20439;-73
2021/03/02 07:04:16;;;;;;;45.65;21.60;;;1.40;99.90;;;;;;5122599;27;20025;-72
2021/03/02 07:06:42;;;;;;;39.42;19.08;;;1.60;99.90;;;;;;5123384;27;20021;-72
2021/03/02 07:09:10;;;;;;;41.22;18.13;;;1.80;99.90;;;;;;5124213;27;20411;-73
2021/03/02 07:11:37;;;;;;;36.05;15.93;;;2.00;99.90;;;;;;5124584;27;20053;-73
2021/03/02 07:14:05;;;;;;;34.13;16.25;;;2.20;99.90;;;;;;5124400;27;20107;-72
2021/03/02 07:16:33;;;;;;;33.80;16.75;;;2.30;99.90;;;;;;5124042;27;20029;-72
2021/03/02 07:19:02;;;;;;;34.95;16.92;;;2.50;99.90;;;;;;5123831;27;20021;-72
2021/03/02 07:21:39;;;;;;;31.30;15.98;;;2.70;99.90;;;;;;5122665;27;20029;-72
2021/03/02 07:24:11;;;;;;;28.45;15.05;;;2.90;99.90;;;;;;5122129;27;20036;-73
2021/03/02 07:26:46;;;;;;;32.45;15.98;;;3.20;99.90;;;;;;5121656;27;20028;-73
2021/03/02 07:29:12;;;;;;;29.58;15.35;;;3.50;99.90;;;;;;5122170;27;20036;-72
2021/03/02 07:31:39;;;;;;;29.52;16.15;;;3.70;99.90;;;;;;5122337;27;20033;-72
2021/03/02 07:34:07;;;;;;;40.30;20.08;;;3.90;99.90;;;;;;5122244;27;20054;-73
2021/03/02 07:36:35;;;;;;;37.92;20.20;;;4.20;99.90;;;;;;5122217;27;20077;-72
2021/03/02 07:39:19;;;;;;;38.35;20.42;;;4.40;99.90;;;;;;5123228;27;20021;-72
2021/03/02 07:41:46;;;;;;;35.97;19.95;;;4.70;99.90;;;;;;5053904;27;20049;-72
2021/03/02 07:44:12;;;;;;;41.33;20.77;;;5.00;99.90;;;;;;5123107;27;20516;-72
2021/03/02 07:46:40;;;;;;;45.28;21.98;;;5.30;99.90;;;;;;5123073;27;20064;-72
2021/03/02 07:49:25;;;;;;;42.83;21.42;;;5.60;99.90;;;;;;5123492;27;20021;-72
2021/03/02 07:51:56;;;;;;;40.05;21.10;;;5.60;99.90;;;;;;5122976;27;20024;-72
2021/03/02 07:54:23;;;;;;;39.05;20.65;;;5.80;99.90;;;;;;5122880;27;20028;-72
2021/03/02 07:56:50;;;;;;;36.35;20.20;;;6.00;99.90;;;;;;5122704;27;20481;-73
2021/03/02 07:59:16;;;;;;;37.35;20.42;;;6.20;99.90;;;;;;5122166;27;20119;-72
2021/03/02 08:01:43;;;;;;;37.25;21.35;;;6.30;99.90;;;;;;5122261;27;20021;-72
2021/03/02 08:04:15;;;;;;;41.03;22.48;;;6.40;99.90;;;;;;5122872;27;20059;-72
2021/03/02 08:06:50;;;;;;;41.40;21.70;;;6.60;99.90;;;;;;5121238;27;20397;-72
2021/03/02 08:09:36;;;;;;;41.30;22.00;;;6.90;99.90;;;;;;5121309;27;20028;-72
2021/03/02 08:12:28;;;;;;;40.70;21.75;;;7.20;99.90;;;;;;5121196;27;20568;-72
2021/03/02 08:14:55;;;;;;;38.97;21.60;;;7.50;99.90;;;;;;5117539;27;20044;-72
2021/03/02 08:17:22;;;;;;;38.50;22.00;;;7.70;99.90;;;;;;5122273;27;20075;-72
2021/03/02 08:20:03;;;;;;;40.38;20.80;;;7.90;99.90;;;;;;5121906;27;20025;-72
2021/03/02 08:22:30;;;;;;;38.03;21.70;;;8.20;99.90;;;;;;5121471;27;20566;-72
2021/03/02 08:24:59;;;;;;;35.20;20.90;;;8.40;99.90;;;;;;5121596;27;20033;-73
2021/03/02 08:27:55;;;;;;;37.70;20.83;;;8.70;99.90;;;;;;5121436;27;20025;-72
2021/03/02 08:30:36;;;;;;;35.13;20.08;;;9.00;99.90;;;;;;5121395;27;20042;-72
2021/03/02 08:33:10;;;;;;;34.92;19.75;;;9.10;99.90;;;;;;5120760;27;20033;-72
2021/03/02 08:35:41;;;;;;;32.13;19.70;;;9.40;99.90;;;;;;5120780;27;20025;-73
2021/03/02 08:38:12;;;;;;;30.40;18.42;;;9.70;99.90;;;;;;5120266;27;20036;-72
2021/03/02 08:40:37;;;;;;;30.38;18.35;;;10.20;99.90;;;;;;5120155;27;20025;-72
2021/03/02 08:43:23;;;;;;;33.75;20.48;;;11.00;99.90;;;;;;5120211;27;20033;-72
2021/03/02 08:45:54;;;;;;;33.63;19.95;;;12.00;99.30;;;;;;5120247;27;20415;-72
2021/03/02 08:48:21;;;;;;;26.38;18.23;;;13.40;91.30;;;;;;5119027;27;20490;-72
2021/03/02 08:51:04;;;;;;;28.48;19.02;;;14.80;77.00;;;;;;5120182;27;20025;-72
2021/03/02 08:53:32;;;;;;;28.83;19.15;;;17.20;62.20;;;;;;5120265;27;20053;-73
2021/03/02 08:55:58;;;;;;;27.67;19.15;;;19.90;50.20;;;;;;5120196;27;20025;-73
2021/03/02 08:58:31;;;;;;;24.88;19.35;;;21.60;43.20;;;;;;5120406;27;20107;-73
2021/03/02 09:01:05;;;;;;;23.13;18.23;;;23.60;39.20;;;;;;5120324;27;20055;-73
2021/03/02 09:03:31;;;;;;;23.65;17.45;;;25.90;34.50;;;;;;5120663;27;20049;-73
2021/03/02 09:06:16;;;;;;;22.13;17.35;;;28.20;31.80;;;;;;5120463;27;20029;-73
2021/03/02 09:08:58;;;;;;;22.90;18.15;;;30.10;28.00;;;;;;5119787;27;20029;-73
2021/03/02 09:11:38;;;;;;;25.27;18.92;;;31.30;26.70;;;;;;5080065;28;20759;-74
2021/03/02 09:14:13;;;;;;;19.65;16.63;;;29.80;26.70;;;;;;5063199;28;20031;-73
2021/03/02 09:16:44;;;;;;;19.85;16.35;;;30.50;26.40;;;;;;5063566;28;20021;-73
2021/03/02 09:19:09;;;;;;;20.85;16.58;;;31.20;26.20;;;;;;5047473;28;20056;-73
2021/03/02 09:21:38;;;;;;;20.02;17.40;;;32.80;24.50;;;;;;5068715;22;20009;-73
2021/03/02 09:24:04;;;;;;;20.80;17.30;;;32.10;24.40;;;;;;5068352;28;20464;-73
2021/03/02 09:26:31;;;;;;;19.88;15.82;;;31.70;24.30;;;;;;5068871;28;20120;-73
2021/03/02 09:28:59;;;;;;;14.55;13.05;;;33.60;24.10;;;;;;5069049;28;20398;-73
2021/03/02 09:31:26;;;;;;;15.77;13.98;;;35.00;23.10;;;;;;5068713;28;20060;-73
2021/03/02 09:33:53;;;;;;;17.67;15.85;;;35.60;22.10;;;;;;5048702;28;20025;-73
2021/03/02 09:36:19;;;;;;;16.50;14.73;;;35.10;21.80;;;;;;5048842;28;20029;-73
2021/03/02 09:38:46;;;;;;;17.33;15.52;;;35.10;21.80;;;;;;5049943;28;20531;-74
2021/03/02 09:41:12;;;;;;;14.52;12.95;;;36.00;20.90;;;;;;5049337;28;20074;-74
2021/03/02 09:43:39;;;;;;;15.13;13.30;;;36.90;21.20;;;;;;5049043;28;20029;-73
2021/03/02 09:46:06;;;;;;;15.35;13.75;;;37.00;20.40;;;;;;5048704;28;20040;-74
2021/03/02 09:48:48;;;;;;;18.65;16.42;;;38.40;20.10;;;;;;5048554;28;20398;-74
2021/03/02 09:51:31;;;;;;;17.55;15.70;;;38.70;20.10;;;;;;5048457;28;20508;-74
2021/03/02 09:54:17;;;;;;;17.55;15.68;;;39.30;18.90;;;;;;5048331;28;20552;-73
2021/03/02 09:56:46;;;;;;;18.02;14.40;;;38.10;19.60;;;;;;5048904;28;20108;-73
2021/03/02 09:59:22;;;;;;;16.90;15.20;;;38.30;19.60;;;;;;5048416;28;20021;-74
2021/03/02 10:01:48;;;;;;;15.75;14.15;;;37.60;19.20;;;;;;5048494;28;20033;-74
2021/03/02 10:04:14;;;;;;;16.63;13.45;;;38.20;19.60;;;;;;5048580;28;20140;-74
2021/03/02 10:06:40;;;;;;;15.48;13.93;;;39.50;19.30;;;;;;5048418;28;20068;-74
2021/03/02 10:09:26;;;;;;;16.00;13.95;;;40.00;18.70;;;;;;5048387;28;20053;-74
2021/03/02 10:12:13;;;;;;;17.00;15.30;;;40.30;18.20;;;;;;5048351;28;20028;-74
2021/03/02 10:14:43;;;;;;;16.92;15.13;;;41.00;17.80;;;;;;5048025;28;20024;-74
2021/03/02 10:17:10;;;;;;;14.85;13.27;;;40.40;17.40;;;;;;5048174;28;20044;-73
2021/03/02 10:19:37;;;;;;;15.88;14.20;;;38.50;18.80;;;;;;5047863;28;20487;-74
2021/03/02 10:22:11;;;;;;;21.13;19.00;;;39.00;18.40;;;;;;5039145;28;20099;-76
2021/03/02 10:24:39;;;;;;;15.25;13.73;;;36.50;19.00;;;;;;5034537;28;20025;-76
2021/03/02 10:27:19;;;;;;;17.05;15.25;;;37.10;19.10;;;;;;5034401;28;20021;-73
2021/03/02 10:29:46;;;;;;;16.67;15.05;;;37.30;19.30;;;;;;5034322;28;20083;-73
2021/03/02 10:32:12;;;;;;;13.90;12.52;;;38.70;19.00;;;;;;5034212;28;20025;-74
2021/03/02 10:34:40;;;;;;;14.60;12.50;;;38.90;19.00;;;;;;5034258;28;20105;-74
2021/03/02 10:37:08;;;;;;;13.00;11.70;;;38.80;18.70;;;;;;5034653;28;20026;-73
2021/03/02 10:39:35;;;;;;;12.85;11.55;;;39.80;18.50;;;;;;5035085;28;20040;-74
2021/03/02 10:42:02;;;;;;;13.18;11.85;;;40.60;18.20;;;;;;5034116;28;20065;-74
2021/03/02 10:44:28;;;;;;;15.65;12.27;;;41.50;17.60;;;;;;5034259;28;20025;-74
2021/03/02 10:46:54;;;;;;;13.00;11.65;;;40.10;17.40;;;;;;5034163;28;20398;-74
2021/03/02 10:49:21;;;;;;;14.25;12.85;;;40.00;17.40;;;;;;5034070;28;20166;-74
2021/03/02 10:51:47;;;;;;;12.73;11.55;;;40.10;17.50;;;;;;5034019;28;21307;-74
2021/03/02 10:54:13;;;;;;;12.30;11.00;;;40.70;17.80;;;;;;5034003;28;20026;-74
2021/03/02 10:56:39;;;;;;;11.00;9.90;;;42.00;17.20;;;;;;5033988;28;20497;-74
2021/03/02 10:59:05;;;;;;;10.68;9.57;;;42.60;17.00;;;;;;5035197;28;20017;-74
2021/03/02 11:01:31;;;;;;;13.18;11.88;;;42.70;16.60;;;;;;5033797;28;20064;-75
2021/03/02 11:03:57;;;;;;;13.27;11.98;;;43.20;17.10;;;;;;5033879;28;20024;-74
2021/03/02 11:06:26;;;;;;;12.52;11.30;;;42.20;16.30;;;;;;5033825;28;20025;-74
2021/03/02 11:08:52;;;;;;;11.63;10.43;;;41.70;16.70;;;;;;5033771;28;20044;-74
2021/03/02 11:11:22;;;;;;;10.30;9.30;;;39.90;17.10;;;;;;5033518;28;20021;-74
2021/03/02 11:13:50;;;;;;;9.30;8.40;;;41.00;17.40;;;;;;5033458;28;20112;-74
2021/03/02 11:16:17;;;;;;;11.35;9.95;;;41.40;17.10;;;;;;5033596;28;20376;-74
2021/03/02 11:18:43;;;;;;;11.80;10.60;;;42.30;16.90;;;;;;5033474;28;20026;-74
2021/03/02 11:21:11;;;;;;;11.15;10.05;;;43.00;16.20;;;;;;5033466;28;20136;-74
2021/03/02 11:23:38;;;;;;;11.55;10.10;;;40.90;16.30;;;;;;5033434;28;20033;-74
2021/03/02 11:26:04;;;;;;;8.90;8.02;;;41.60;16.10;;;;;;5034957;28;20026;-74
2021/03/02 11:28:29;;;;;;;11.35;9.95;;;40.50;17.20;;;;;;5033400;28;20478;-74
2021/03/02 11:30:55;;;;;;;11.73;10.57;;;41.50;16.70;;;;;;5033363;28;20026;-74
2021/03/02 11:33:20;;;;;;;10.38;9.15;;;41.10;16.60;;;;;;5032166;28;20543;-74
2021/03/02 11:35:46;;;;;;;10.52;9.52;;;41.60;16.70;;;;;;5034536;28;20026;-74
2021/03/02 11:38:13;;;;;;;10.88;9.82;;;41.90;16.40;;;;;;5033150;28;20021;-74
2021/03/02 11:40:39;;;;;;;10.90;9.27;;;41.00;16.10;;;;;;5033219;28;20040;-75
2021/03/02 11:43:05;;;;;;;10.40;9.30;;;40.60;16.50;;;;;;5033377;28;20033;-74
2021/03/02 11:45:36;;;;;;;8.93;8.13;;;40.50;16.40;;;;;;5033615;28;20022;-73
2021/03/02 11:48:03;;;;;;;9.65;8.65;;;40.20;17.00;;;;;;5033386;28;20025;-74
2021/03/02 11:50:28;;;;;;;9.82;8.77;;;41.00;16.40;;;;;;5033693;28;20037;-74
2021/03/02 11:52:54;;;;;;;9.32;8.43;;;41.40;16.60;;;;;;5032898;28;20017;-74
2021/03/02 11:55:20;;;;;;;10.95;9.82;;;41.80;16.40;;;;;;5032842;28;20080;-74
2021/03/02 11:57:47;;;;;;;10.73;9.30;;;40.40;15.80;;;;;;5032833;28;20061;-74
2021/03/02 12:00:18;;;;;;;10.65;9.65;;;40.80;16.40;;;;;;5032866;28;20035;-74
2021/03/02 12:02:45;;;;;;;12.30;10.10;;;38.40;17.30;;;;;;5032637;28;20021;-74
2021/03/02 12:05:11;;;;;;;8.50;7.60;;;36.40;19.10;;;;;;5032847;28;20033;-74
2021/03/02 12:07:37;;;;;;;7.93;7.13;;;37.30;19.10;;;;;;5032674;28;20049;-74
2021/03/02 12:10:05;;;;;;;9.10;8.27;;;39.80;17.60;;;;;;5032553;28;20060;-74
2021/03/02 12:12:31;;;;;;;9.80;8.80;;;41.30;16.60;;;;;;5032617;28;20024;-74
2021/03/02 12:14:57;;;;;;;10.38;8.43;;;40.50;16.40;;;;;;5032656;28;20030;-74
2021/03/02 12:17:22;;;;;;;9.15;7.68;;;40.40;16.80;;;;;;5032600;28;20080;-74
2021/03/02 12:19:48;;;;;;;9.43;8.30;;;41.50;16.90;;;;;;5032467;28;20049;-74
2021/03/02 12:22:14;;;;;;;8.63;7.82;;;42.80;16.50;;;;;;5033504;28;20091;-74
2021/03/02 12:24:39;;;;;;;8.50;7.45;;;43.30;16.00;;;;;;5032541;28;20025;-75
2021/03/02 12:27:05;;;;;;;8.48;7.55;;;44.40;15.70;;;;;;5032504;28;20022;-74
2021/03/02 12:29:31;;;;;;;9.88;8.85;;;45.00;15.30;;;;;;5032269;28;20095;-74
2021/03/02 12:31:56;;;;;;;9.90;8.90;;;44.40;14.90;;;;;;5033279;28;20482;-74
2021/03/02 12:34:22;;;;;;;10.70;9.57;;;44.40;15.10;;;;;;5031827;28;20033;-74
2021/03/02 12:36:48;;;;;;;8.30;7.50;;;43.70;15.30;;;;;;5031945;28;20026;-74
2021/03/02 12:39:14;;;;;;;6.65;5.95;;;43.40;15.70;;;;;;5032132;28;20021;-74